Disclaimer

Please do not use the information listed here in-flight or in-navigation, as they are not provided to us by the airports but are provided by volunteers, so they might be outdated.

Search


Regions


Airport information page

Radio informations:
Tower (TWR) - 124.95 MHz
Approach (APP) - 123.35 MHz

Airport informations:
Latitude: 53° 10' 41.00" N
Longitude: 002° 58' 40.00" W
Elevation: 45 feet - 14 meters
Operating hours: Remarks
Operating agency: Civil government, landing fees and diplomatic clearance may be required
Timezone: UTC 0(+1DT) - Last Sunday in March to last Sunday in October
Fuel: Jet A1, without icing nhibitor.

100/130 MIL Spec, low lead, aviation gasoline (BLUE)

Runway information:
05/23 - 6702 x 148 feet< - >2043 x 45 meters

Recent METARs:
EGNR 170820Z 13008KT 8000 BKN010 09/07 Q1027
EGNR 170850Z 14010KT 9999 8000W BKN010 09/08 Q1028

Airport on the map: